Historyczne dane pomiarowe

Dodano dane terminowe – wersja testowa.

Dane z okresu 1951-2019

Wersja bazy: 1.34 [2019-03-16, lista zmian], aktualizacja planowana na 2019-04-15

Dane meteo z obszaru Polski uzyskane na podstawie danych udostępnionych przez Instytut Meteorologii i Gospodarki Wodnej – Państwowy Instytut Badawczy.

 

Wybierz Datę:    

       

TemperaturaWilgotnośćWiatrCiśnienieOpadyŚniegCzas trwania zjawisk
 Stacja t tx tn tng RH VA  wxwx mslp ppp RRR   cm mm wxwxwxwxwxwxwx
2019-07-01 20.5 24.8 16.6--- 4.0 5.7---- 0.0------------
2019-06-30 18.0 25.2 8.3--- 0.0 3.7---- 0.0------------
2019-06-29 10.9 16.2 6.3--- 4.0 3.0---- 0.0------------
2019-06-28 8.4 13.2 5.3--- 6.7 3.3---- 0.1------------
2019-06-27 15.8 20.2 12.2--- 4.7 5.7---- 0.0------------
2019-06-26 18.5 25.2 12.7--- 1.3 4.3---- 0.0------------
2019-06-25 15.7 23.2 8.3--- 1.7 1.7---- 0.0------------
2019-06-24 11.0 13.7 9.2--- 8.0 3.3---- 0.0------------
2019-06-23 10.9 13.2 9.6--- 8.0 4.0---- 10.7------------
2019-06-22 10.9 13.2 8.3--- 8.0 2.0---- 4.2------------
2019-06-21 12.9 17.2 9.7--- 8.0 1.3---- 3.9------------
2019-06-20 13.1 17.9 10.2--- 6.7 1.0---- 6.0------------
2019-06-19 13.4 19.2 9.2--- 6.7 3.0---- 3.4------------
2019-06-18 10.8 16.2 4.8--- 6.0 2.7---- 7.0------------
2019-06-17 9.6 12.7 6.8--- 6.3 2.0---- 19.7------------
2019-06-16 15.0 22.7 10.7--- 6.0 2.7---- 11.4------------
2019-06-15 18.1 24.2 13.1--- 3.7 5.3---- 0.0------------
2019-06-14 17.6 23.8 11.7--- 5.3 1.7---- 0.0------------
2019-06-13 17.4 23.7 11.7--- 2.7 4.3---- 0.0------------
2019-06-12 16.3 20.2 12.2--- 2.3 6.0---- 0.0------------
2019-06-11 15.9 19.7 11.7--- 2.0 3.7---- 0.0------------
2019-06-10 15.1 20.2 10.5--- 3.0 3.7---- 0.0------------
2019-06-09 11.3 18.7 6.8--- 6.0 2.7---- 0.0------------
2019-06-08 13.0 20.7 8.2--- 5.0 1.3---- 1.8------------
2019-06-07 11.8 18.7 6.3--- 6.0 2.7---- 1.9------------
2019-06-06 10.9 15.7 6.3--- 5.0 3.3---- 0.0------------
2019-06-05 12.0 16.7 7.8--- 5.0 2.3---- 0.0------------
2019-06-04 11.8 17.7 6.8--- 3.7 2.0---- 0.0------------
2019-06-03 11.2 15.7 6.2--- 4.7 2.7---- 0.2-- 48---------
2019-06-02 10.2 14.7 6.3--- 4.7 2.0---- 0.0-- 52---------
2019-06-01 7.9 12.2 4.3--- 6.7 4.0---- 2.7-- 56---------
2019-05-31 6.1 10.2 2.4--- 7.3 1.0---- 0.0-- 58---------
2019-05-30 3.1 5.7 0.9--- 8.0 2.0---- 12.3-- 60---------
2019-05-29 5.5 8.2 2.8--- 7.3 1.7---- 16.9-- 62---------
2019-05-28 7.8 9.7 5.8--- 8.0 5.0---- 13.0-- 65---------
2019-05-27 9.7 13.7 6.3--- 6.3 4.0---- 13.6-- 68---------
2019-05-26 9.1 12.7 4.8--- 5.3 3.0---- 0.0-- 72---------
2019-05-25 7.2 13.7 2.4--- 3.3 2.0---- 0.0-- 76---------
2019-05-24 4.2 6.7 1.9--- 8.0 1.7---- 7.7-- 79---------
2019-05-23 3.9 5.3 2.6--- 8.0 1.7---- 30.1-- 82---------
2019-05-22 4.7 6.7 3.0--- 7.7 5.7---- 67.9-- 85---------
2019-05-21 5.2 7.9 2.4--- 8.0 6.3---- 24.6-- 93---------
2019-05-20 7.5 10.7 5.3--- 8.0 4.7---- 0.0-- 95---------
2019-05-19 8.4 12.7 5.5--- 6.3 3.3---- 9.4-- 97---------
2019-05-18 7.4 12.7 3.9--- 2.0 2.3---- 0.0--100---------
2019-05-17 5.7 10.7 1.9--- 7.0 1.3---- 0.6--102---------
2019-05-16 4.8 9.7 0.4--- 4.0 0.7---- 0.0--105---------
2019-05-15 0.6 2.8 -3.1--- 8.0 1.3---- 13.3--110---------
2019-05-14 -3.4 -1.7 -5.2--- 8.0 2.0---- 19.5--110---------
2019-05-13 -0.9 4.8 -4.2--- 7.7 2.3---- 7.1--104---------
2019-05-12 5.0 7.2 2.4--- 7.3 1.7---- 6.0--108---------
2019-05-11 3.9 7.7 0.4--- 5.7 2.3---- 0.0--114---------
2019-05-10 2.2 6.2 -1.1--- 7.0 2.0---- 2.4--118---------
2019-05-09 0.3 2.3 -0.9--- 8.0 7.3---- 9.8--118---------
2019-05-08 -1.7 1.3 -6.2--- 5.0 6.7---- 0.7--120---------
2019-05-07 -3.8 -1.7 -6.2--- 7.7 4.7---- 0.6--120---------
2019-05-06 -4.9 -2.2 -7.2--- 8.0 4.0---- 9.0--118---------
2019-05-05 -1.5 2.2 -4.2--- 8.0 2.7---- 16.0--100---------
2019-05-04 1.0 4.8 -2.1--- 6.7 2.3---- 1.4--103---------
2019-05-03 2.8 5.3 0.4--- 8.0 3.0---- 4.6--105---------
112.6 ms

 

Źródłem pochodzenia danych jest Instytut Meteorologii i Gospodarki Wodnej – Państwowy Instytut Badawczy. Dane Instytutu Meteorologii i Gospodarki Wodnej – Państwowego Instytutu Badawczego zostały przetworzone.

Dane źródłowe można odnaleźć na stronie https://dane.imgw.pl